Time;durP1;ratioP1;P1;durP2;ratioP2;P2;SDS_P1;SDS_P2;PMS_P1;PMS_P2;Temp;Humidity;BMP_temperature;BMP_pressure;BME280_temperature;BME280_humidity;BME280_pressure;Samples;Min_cycle;Max_cycle;Signal;HPM_P1;HPM_P2
2022/08/25 01:40:57;;;;;;;3.05;2.20;;;;;;;17.39;100.00;94620.50;2625011;23;20224;-90
2022/08/25 01:43:37;;;;;;;5.55;2.28;;;;;;;17.07;100.00;94619.72;4905353;29;20040;-91
2022/08/25 01:46:02;;;;;;;6.70;2.70;;;;;;;17.14;100.00;94617.41;4887611;29;20071;-92
2022/08/25 01:48:28;;;;;;;3.78;2.53;;;;;;;17.20;100.00;94610.13;4882909;29;20060;-91
2022/08/25 01:50:55;;;;;;;4.85;2.47;;;;;;;17.35;100.00;94598.38;4910087;29;20357;-91
2022/08/25 01:53:30;;;;;;;3.47;2.55;;;;;;;17.44;100.00;94601.84;4890992;29;20082;-91
2022/08/25 01:59:20;;;;;;;4.28;2.58;;;;;;;17.67;100.00;94599.91;4922929;29;20046;-91
2022/08/25 02:02:01;;;;;;;4.22;2.72;;;;;;;17.75;100.00;94603.69;4890588;29;20039;-91
2022/08/25 02:04:30;;;;;;;5.72;3.08;;;;;;;17.37;100.00;94599.63;4906254;29;20036;-91
2022/08/25 02:06:59;;;;;;;5.90;2.35;;;;;;;17.25;100.00;94610.00;4906791;29;20028;-90
2022/08/25 02:09:25;;;;;;;4.03;2.53;;;;;;;17.28;100.00;94609.41;4921976;29;20340;-91
2022/08/25 02:11:50;;;;;;;3.65;2.42;;;;;;;17.63;100.00;94604.25;4922912;29;20040;-90
2022/08/25 02:14:18;;;;;;;3.65;2.22;;;;;;;17.53;100.00;94605.31;4922686;29;20036;-90
2022/08/25 02:16:51;;;;;;;4.18;2.35;;;;;;;17.49;100.00;94606.22;4922649;29;20047;-90
2022/08/25 02:19:20;;;;;;;4.35;2.72;;;;;;;17.13;100.00;94604.47;4906268;29;20119;-91
2022/08/25 02:21:45;;;;;;;4.18;2.72;;;;;;;17.07;100.00;94603.81;4922890;29;20052;-91
2022/08/25 02:24:14;;;;;;;4.30;2.58;;;;;;;17.27;100.00;94610.47;4922584;29;20028;-91
2022/08/25 02:27:18;;;;;;;5.05;2.40;;;;;;;17.37;100.00;94607.59;4890121;29;20024;-91
2022/08/25 02:29:46;;;;;;;3.75;2.65;;;;;;;17.42;100.00;94613.81;4922378;29;20035;-91
2022/08/25 02:32:11;;;;;;;4.13;2.80;;;;;;;17.40;100.00;94608.06;4922459;29;20035;-90
2022/08/25 02:34:40;;;;;;;5.78;3.28;;;;;;;17.30;100.00;94596.63;4922392;29;20032;-91
2022/08/25 02:37:07;;;;;;;7.20;2.90;;;;;;;17.46;100.00;94594.38;4905390;29;20028;-91
2022/08/25 02:39:35;;;;;;;5.50;3.03;;;;;;;17.34;100.00;94592.28;4922041;29;20123;-90
2022/08/25 02:42:01;;;;;;;5.97;2.88;;;;;;;17.35;100.00;94590.44;4905085;29;20153;-91
2022/08/25 02:44:27;;;;;;;3.92;2.67;;;;;;;17.45;100.00;94595.47;4922206;29;20117;-90
2022/08/25 02:46:55;;;;;;;4.05;2.63;;;;;;;17.41;100.00;94594.50;4905577;29;20453;-90
2022/08/25 02:49:20;;;;;;;6.70;2.80;;;;;;;17.67;100.00;94586.66;4921901;29;20452;-92
2022/08/25 02:51:48;;;;;;;6.28;2.65;;;;;;;17.40;100.00;94589.53;4922220;29;20120;-90
2022/08/25 02:54:14;;;;;;;5.18;3.05;;;;;;;17.40;100.00;94581.56;4921647;29;20413;-90
2022/08/25 02:56:41;;;;;;;3.83;2.50;;;;;;;17.38;100.00;94581.88;4904884;29;20036;-90
2022/08/25 02:59:07;;;;;;;4.88;2.90;;;;;;;17.44;100.00;94591.25;4905039;29;20070;-91
2022/08/25 03:01:33;;;;;;;3.50;2.70;;;;;;;17.46;100.00;94583.00;4905176;29;20024;-90
2022/08/25 03:04:00;;;;;;;7.78;3.28;;;;;;;17.40;100.00;94587.63;4889057;29;20071;-91
2022/08/25 03:06:26;;;;;;;3.88;2.63;;;;;;;17.28;100.00;94580.28;4921878;29;20032;-91
2022/08/25 03:08:54;;;;;;;4.40;2.88;;;;;;;17.37;100.00;94580.31;4921381;29;20039;-91
2022/08/25 03:11:20;;;;;;;5.53;3.20;;;;;;;17.37;100.00;94578.44;4921697;29;20028;-90
2022/08/25 03:13:45;;;;;;;4.40;2.80;;;;;;;17.35;100.00;94577.94;4921489;29;20103;-90
2022/08/25 03:16:12;;;;;;;3.92;2.78;;;;;;;17.36;100.00;94579.53;4921258;29;20573;-90
2022/08/25 03:18:40;;;;;;;5.70;3.10;;;;;;;17.43;100.00;94583.59;4904509;29;20076;-90
2022/08/25 03:21:06;;;;;;;5.97;3.40;;;;;;;17.37;100.00;94583.75;4904348;29;20024;-91
2022/08/25 03:23:31;;;;;;;4.28;2.97;;;;;;;17.34;100.00;94580.91;4921820;29;20032;-91
2022/08/25 03:28:41;;;;;;;5.28;2.95;;;;;;;17.36;100.00;94578.75;4906860;29;20035;-90
2022/08/25 03:31:09;;;;;;;6.75;3.20;;;;;;;17.28;100.00;94580.28;4921303;29;20028;-91
2022/08/25 03:33:35;;;;;;;5.75;3.35;;;;;;;17.41;100.00;94580.47;4904702;29;20051;-91
2022/08/25 03:36:01;;;;;;;4.72;3.22;;;;;;;17.37;100.00;94577.66;4921027;29;20035;-91
2022/08/25 03:38:27;;;;;;;5.95;3.80;;;;;;;17.27;100.00;94580.56;4939475;29;20028;-90
2022/08/25 03:40:52;;;;;;;7.20;3.33;;;;;;;17.23;100.00;94578.53;4940300;29;20034;-90
2022/08/25 03:43:18;;;;;;;7.88;3.35;;;;;;;17.25;100.00;94578.22;4940165;29;20054;-91
2022/08/25 03:45:44;;;;;;;7.05;3.42;;;;;;;17.35;100.00;94574.53;4940420;29;20158;-90
2022/08/25 03:48:10;;;;;;;6.78;3.70;;;;;;;17.37;100.00;94578.44;4939923;29;20412;-90
2022/08/25 03:50:43;;;;;;;5.28;3.40;;;;;;;17.26;100.00;94573.72;4907414;29;20055;-90
2022/08/25 03:53:16;;;;;;;4.95;3.40;;;;;;;17.23;100.00;94583.81;4912772;29;20048;-91
2022/08/25 03:55:41;;;;;;;4.70;3.37;;;;;;;17.28;100.00;94577.63;4905511;29;20024;-91
2022/08/25 03:58:12;;;;;;;9.93;3.00;;;;;;;17.34;100.00;94579.03;4904094;29;20031;-91
2022/08/25 04:00:38;;;;;;;6.00;3.10;;;;;;;17.52;100.00;94573.84;4900759;29;20072;-92
2022/08/25 04:03:03;;;;;;;5.82;3.13;;;;;;;17.23;100.00;94575.88;4869988;29;20032;-91
2022/08/25 04:05:29;;;;;;;4.80;3.47;;;;;;;17.16;100.00;94574.75;4916881;29;20048;-90
2022/08/25 04:07:54;;;;;;;6.38;3.42;;;;;;;17.04;100.00;94572.69;4916714;29;20335;-91
2022/08/25 04:10:20;;;;;;;5.65;3.30;;;;;;;17.13;100.00;94573.47;4916393;29;20059;-90
2022/08/25 04:12:48;;;;;;;7.47;3.38;;;;;;;17.12;100.00;94577.22;4884912;29;20032;-91
2022/08/25 04:15:13;;;;;;;8.25;3.63;;;;;;;17.22;100.00;94573.56;4916442;29;20080;-90
2022/08/25 04:17:41;;;;;;;5.28;3.38;;;;;;;17.35;100.00;94577.94;4916239;29;20033;-90
2022/08/25 04:20:10;;;;;;;6.13;3.35;;;;;;;17.51;100.00;94581.00;4884761;29;20394;-90
2022/08/25 04:22:36;;;;;;;6.30;3.33;;;;;;;17.36;100.00;94568.94;4885524;29;20319;-92
2022/08/25 04:25:03;;;;;;;5.65;3.35;;;;;;;17.27;100.00;94573.41;4916397;29;20532;-91
2022/08/25 04:27:29;;;;;;;5.68;3.60;;;;;;;17.19;100.00;94568.84;4916451;29;20334;-89
2022/08/25 04:29:54;;;;;;;5.75;3.58;;;;;;;17.21;100.00;94574.63;4916271;29;20147;-91
2022/08/25 04:32:19;;;;;;;10.13;4.28;;;;;;;17.33;100.00;94576.72;4916210;29;20036;-91
2022/08/25 04:34:45;;;;;;;5.60;3.65;;;;;;;17.33;100.00;94574.06;4901418;29;20119;-91
2022/08/25 04:37:11;;;;;;;5.32;3.67;;;;;;;17.34;100.00;94579.03;4884975;29;20056;-91
2022/08/25 04:39:36;;;;;;;5.25;3.75;;;;;;;17.31;100.00;94584.94;4884758;29;20107;-90
2022/08/25 04:42:02;;;;;;;7.32;3.78;;;;;;;17.23;100.00;94578.53;4869342;29;20040;-89
2022/08/25 04:44:28;;;;;;;5.65;3.50;;;;;;;17.38;100.00;94576.56;4916440;29;20029;-91
2022/08/25 04:46:54;;;;;;;7.28;3.33;;;;;;;17.31;100.00;94576.25;4884794;29;20327;-88
2022/08/25 04:49:19;;;;;;;8.20;3.90;;;;;;;17.46;100.00;94575.03;4916220;29;20044;-90
2022/08/25 04:51:45;;;;;;;4.90;3.35;;;;;;;17.39;100.00;94572.84;4884409;29;20036;-89
2022/08/25 04:54:15;;;;;;;6.25;3.45;;;;;;;17.44;100.00;94571.91;4922418;29;20087;-90
2022/08/25 04:56:41;;;;;;;5.72;3.63;;;;;;;17.28;100.00;94582.91;4922586;29;20031;-90
2022/08/25 04:59:10;;;;;;;6.13;3.67;;;;;;;17.46;100.00;94585.63;4922008;29;20038;-89
2022/08/25 05:01:36;;;;;;;5.68;3.40;;;;;;;17.48;100.00;94581.59;4922477;29;20077;-90
2022/08/25 05:04:04;;;;;;;20.98;4.07;;;;;;;17.42;100.00;94582.81;4921983;29;20027;-90
2022/08/25 05:06:30;;;;;;;6.35;3.58;;;;;;;17.13;100.00;94576.13;4922522;29;20107;-89
2022/08/25 05:08:56;;;;;;;8.65;3.72;;;;;;;17.09;100.00;94575.97;4922158;29;20222;-90
2022/08/25 05:11:23;;;;;;;5.57;3.72;;;;;;;17.14;100.00;94580.34;4922521;29;20040;-90
2022/08/25 05:13:50;;;;;;;8.23;3.83;;;;;;;17.22;100.00;94578.84;4937969;29;20167;-89
2022/08/25 05:16:16;;;;;;;8.40;3.80;;;;;;;17.30;100.00;94579.97;4922014;29;20024;-89
2022/08/25 05:18:42;;;;;;;6.22;3.60;;;;;;;17.42;100.00;94569.56;4937899;29;20118;-90
2022/08/25 05:21:11;;;;;;;5.53;3.70;;;;;;;17.59;100.00;94568.09;4922423;29;20020;-91
2022/08/25 05:23:37;;;;;;;7.00;3.88;;;;;;;17.74;100.00;94578.28;4922422;29;20450;-90
2022/08/25 05:26:17;;;;;;;6.80;3.75;;;;;;;17.88;100.00;94575.50;4923768;29;20028;-90
2022/08/25 05:28:43;;;;;;;5.50;3.72;;;;;;;17.99;100.00;94575.22;4924973;29;20028;-90
2022/08/25 05:31:10;;;;;;;5.75;4.13;;;;;;;18.12;100.00;94566.38;4925400;29;20424;-89
2022/08/25 05:33:37;;;;;;;6.45;4.13;;;;;;;18.03;100.00;94571.66;4909877;29;20032;-89
2022/08/25 05:36:04;;;;;;;5.22;3.58;;;;;;;18.40;100.00;94571.38;4925398;29;20023;-90
2022/08/25 05:38:29;;;;;;;5.10;3.30;;;;;;;18.38;100.00;94568.28;4910005;29;20023;-90
2022/08/25 05:41:00;;;;;;;4.70;3.35;;;;;;;18.53;100.00;94563.59;4909744;29;20135;-90
2022/08/25 05:43:27;;;;;;;5.30;3.55;;;;;;;18.65;100.00;94561.84;4925498;29;20032;-90
2022/08/25 05:45:54;;;;;;;4.47;3.17;;;;;;;18.99;100.00;94562.16;4924979;29;20043;-90
2022/08/25 05:48:20;;;;;;;5.47;3.60;;;;;;;19.09;100.00;94554.94;4924623;29;20070;-90
2022/08/25 05:51:12;;;;;;;5.70;3.85;;;;;;;19.15;100.00;94557.13;4924666;29;20456;-90
2022/08/25 05:53:40;;;;;;;6.20;3.33;;;;;;;19.32;100.00;94555.50;4921133;29;20453;-91
2022/08/25 05:56:13;;;;;;;6.05;3.40;;;;;;;19.42;100.00;94557.03;4925478;29;20023;-90
2022/08/25 05:58:40;;;;;;;7.75;3.83;;;;;;;19.17;100.00;94548.81;4909313;29;20122;-90
2022/08/25 06:03:53;;;;;;;5.13;3.47;;;;;;;19.48;100.00;94545.09;4927274;29;20099;-89
2022/08/25 06:06:23;;;;;;;6.07;3.38;;;;;;;19.66;100.00;94548.47;4924698;29;20070;-92
2022/08/25 06:08:49;;;;;;;4.90;2.90;;;;;;;19.85;100.00;94544.59;4924914;29;20032;-90
2022/08/25 06:11:18;;;;;;;5.00;3.20;;;;;;;20.00;100.00;94551.28;4909017;29;20028;-91
2022/08/25 06:13:44;;;;;;;5.95;3.20;;;;;;;20.02;100.00;94552.53;4941614;29;20053;-90
2022/08/25 06:16:10;;;;;;;6.07;3.05;;;;;;;20.14;100.00;94554.47;4924492;29;20444;-90
2022/08/25 06:18:35;;;;;;;5.03;3.38;;;;;;;19.85;100.00;94555.25;4924604;29;20031;-90
2022/08/25 06:21:12;;;;;;;4.90;3.60;;;;;;;19.67;100.00;94551.91;4903431;29;20445;-90
2022/08/25 06:23:40;;;;;;;4.85;3.50;;;;;;;20.17;100.00;94545.84;4877981;29;20065;-90
2022/08/25 06:26:06;;;;;;;4.68;3.08;;;;;;;19.90;100.00;94553.19;4871513;29;20368;-90
2022/08/25 06:28:32;;;;;;;4.13;3.08;;;;;;;19.74;100.00;94552.97;4870390;29;20134;-87
2022/08/25 06:30:59;;;;;;;8.85;3.30;;;;;;;19.98;100.00;94543.63;4886961;29;20498;-88
2022/08/25 06:33:24;;;;;;;5.43;3.22;;;;;;;19.94;100.00;94552.56;4871303;29;20056;-87
2022/08/25 06:35:53;;;;;;;6.15;3.50;;;;;;;20.30;100.00;94548.56;4886497;29;20401;-87
2022/08/25 06:38:19;;;;;;;8.05;3.33;;;;;;;20.26;100.00;94556.41;4855189;29;20517;-88
2022/08/25 06:40:48;;;;;;;6.88;3.15;;;;;;;20.39;100.00;94541.31;4886453;29;20099;-89
2022/08/25 06:43:16;;;;;;;4.80;3.25;;;;;;;20.60;100.00;94546.63;4871313;29;20028;-89
2022/08/25 06:45:42;;;;;;;6.97;3.63;;;;;;;20.43;100.00;94547.53;4871605;29;20028;-88
2022/08/25 06:48:09;;;;;;;4.60;3.25;;;;;;;20.59;100.00;94546.94;4870790;29;20379;-88
2022/08/25 06:50:36;;;;;;;6.45;3.40;;;;;;;20.44;100.00;94546.44;4886546;29;20052;-88
2022/08/25 06:53:02;;;;;;;6.22;3.10;;;;;;;20.42;100.00;94540.66;4871236;29;20032;-88
2022/08/25 06:55:27;;;;;;;4.18;3.25;;;;;;;20.68;100.00;94536.19;4886351;29;20030;-88
2022/08/25 06:57:53;;;;;;;5.35;3.20;;;;;;;20.87;100.00;94536.53;4885661;29;20025;-89
2022/08/25 07:00:19;;;;;;;5.97;3.25;;;;;;;20.77;100.00;94539.56;4886062;29;20417;-88
2022/08/25 07:02:46;;;;;;;4.97;3.17;;;;;;;20.68;100.00;94537.00;4886611;29;20308;-89
2022/08/25 07:05:12;;;;;;;5.45;3.40;;;;;;;20.90;100.00;94529.75;4871223;29;20119;-90
2022/08/25 07:07:37;;;;;;;4.45;3.03;;;;;;;20.97;100.00;94532.66;4903047;29;20131;-88
2022/08/25 07:10:04;;;;;;;6.80;3.65;;;;;;;20.94;100.00;94532.53;4907912;29;20078;-88
2022/08/25 07:12:32;;;;;;;7.53;3.30;;;;;;;20.77;100.00;94536.91;4923794;29;20038;-88
2022/08/25 07:14:57;;;;;;;4.35;3.08;;;;;;;21.10;100.00;94549.44;4911854;29;20117;-89
2022/08/25 07:17:22;;;;;;;4.82;3.42;;;;;;;20.99;100.00;94546.44;4889112;29;20429;-88
2022/08/25 07:19:48;;;;;;;7.70;3.28;;;;;;;21.10;100.00;94551.34;4904134;29;20433;-88
2022/08/25 07:22:14;;;;;;;4.97;2.95;;;;;;;21.45;100.00;94550.94;4889361;29;20024;-88
2022/08/25 07:24:39;;;;;;;5.00;3.28;;;;;;;21.59;100.00;94555.94;4904220;29;20036;-88
2022/08/25 07:27:05;;;;;;;8.35;3.35;;;;;;;21.69;100.00;94560.84;4888599;29;20027;-88
2022/08/25 07:29:32;;;;;;;7.30;3.60;;;;;;;21.86;100.00;94559.06;4903932;29;20031;-88
2022/08/25 07:32:01;;;;;;;6.47;3.42;;;;;;;22.11;100.00;94559.84;4904169;29;20115;-88
2022/08/25 07:37:11;;;;;;;5.28;2.75;;;;;;;22.09;100.00;94566.63;4920142;29;20468;-87
2022/08/25 07:39:36;;;;;;;4.53;2.83;;;;;;;22.32;100.00;94553.56;4885848;29;20040;-87
2022/08/25 07:42:03;;;;;;;5.38;3.10;;;;;;;22.15;100.00;94555.38;4896740;29;20445;-88
2022/08/25 07:44:52;;;;;;;3.75;2.97;;;;;;;22.41;100.00;94546.19;4904156;29;20522;-88
2022/08/25 07:47:24;;;;;;;6.32;3.40;;;;;;;22.68;100.00;94557.25;4920463;29;20341;-89
2022/08/25 07:49:59;;;;;;;6.70;3.22;;;;;;;22.60;100.00;94552.84;4904402;29;20371;-90
2022/08/25 07:52:34;;;;;;;;;;;;;;;;;;;;;
2022/08/25 07:55:09;;;;;;;4.95;2.80;;;;;;;22.84;100.00;94540.50;4918499;29;20044;-88
2022/08/25 07:57:35;;;;;;;4.90;2.55;;;;;;;23.11;100.00;94544.22;4904619;29;20081;-88
2022/08/25 08:00:42;;;;;;;;;;;;;;;;;;;;;
2022/08/25 08:03:08;;;;;;;10.25;2.70;;;;;;;23.21;100.00;94553.63;4905634;29;20345;-89
2022/08/25 08:05:41;;;;;;;4.10;2.70;;;;;;;23.33;100.00;94554.72;4888937;29;20056;-87
2022/08/25 08:08:08;;;;;;;3.97;2.25;;;;;;;23.25;100.00;94553.72;4888214;29;20136;-90
2022/08/25 08:10:34;;;;;;;3.67;2.38;;;;;;;23.17;100.00;94558.13;4920319;29;20445;-90
2022/08/25 08:13:07;;;;;;;5.72;2.97;;;;;;;23.25;100.00;94562.53;4920361;29;20111;-89
2022/08/25 08:15:34;;;;;;;9.32;3.05;;;;;;;23.11;100.00;94556.84;4904791;29;20028;-90
2022/08/25 08:18:33;;;;;;;;;;;;;;;;;;;;;
2022/08/25 08:21:01;;;;;;;4.68;3.17;;;;;;;22.96;100.00;94559.13;4899679;29;20058;-91
2022/08/25 08:23:29;;;;;;;4.50;3.25;;;;;;;23.14;100.00;94558.81;4919160;29;20050;-88
2022/08/25 08:25:55;;;;;;;4.70;3.10;;;;;;;22.88;100.00;94558.19;4920697;29;20047;-89
2022/08/25 08:28:28;;;;;;;5.82;3.05;;;;;;;23.22;100.00;94552.50;4920230;29;20434;-89
2022/08/25 08:30:54;;;;;;;5.80;3.30;;;;;;;23.12;100.00;94545.78;4903610;29;20119;-88
2022/08/25 08:33:21;;;;;;;9.25;3.38;;;;;;;23.28;100.00;94551.19;4920882;29;20499;-87
2022/08/25 08:35:47;;;;;;;5.03;2.90;;;;;;;23.39;100.00;94543.41;4917205;29;20075;-89
2022/08/25 08:38:12;;;;;;;6.38;2.97;;;;;;;23.36;100.00;94546.00;4922029;29;20465;-87
2022/08/25 08:42:15;;;;;;;4.82;3.20;;;;;;;23.61;100.00;94543.16;4922301;29;20032;-88
2022/08/25 08:43:41;;;;;;;4.28;2.55;;;;;;;23.78;100.00;94548.13;4925067;29;20536;-88
2022/08/25 08:46:29;;;;;;;10.70;3.00;;;;;;;23.76;100.00;94546.94;4922263;29;20078;-88
2022/08/25 08:49:21;;;;;;;6.15;2.83;;;;;;;24.01;100.00;94550.16;4894209;29;20035;-89
2022/08/25 08:52:27;;;;;;;4.20;2.60;;;;;;;24.13;100.00;94552.75;4922605;29;20031;-91
2022/08/25 08:55:00;;;;;;;3.63;2.50;;;;;;;24.06;100.00;94547.25;4938455;29;20039;-89
2022/08/25 08:57:29;;;;;;;4.65;2.70;;;;;;;23.96;100.00;94545.09;4906876;29;20071;-89
2022/08/25 09:00:00;;;;;;;4.43;2.53;;;;;;;24.05;100.00;94551.03;4923751;29;20040;-91
2022/08/25 09:02:41;;;;;;;5.40;3.05;;;;;;;23.90;100.00;94543.81;4909712;29;20036;-87
2022/08/25 09:05:18;;;;;;;7.85;3.20;;;;;;;24.22;100.00;94544.53;4926448;29;20087;-90
2022/08/25 09:07:56;;;;;;;3.92;2.53;;;;;;;24.06;100.00;94543.81;4910866;29;20028;-90
2022/08/25 09:10:23;;;;;;;3.47;2.60;;;;;;;24.12;100.00;94537.84;4888087;29;20063;-90
2022/08/25 09:12:58;;;;;;;6.70;2.78;;;;;;;24.25;100.00;94538.47;4877413;29;20512;-89
2022/08/25 09:18:56;;;;;;;3.63;2.53;;;;;;;23.98;100.00;94526.78;4890092;29;20085;-89
2022/08/25 09:21:44;;;;;;;6.88;2.90;;;;;;;23.63;100.00;94531.00;4873066;29;20024;-88
2022/08/25 09:24:30;;;;;;;5.90;3.00;;;;;;;23.79;100.00;94530.19;4904478;29;20024;-91
2022/08/25 09:27:13;;;;;;;4.82;2.92;;;;;;;23.80;100.00;94521.81;4904624;29;20024;-90
2022/08/25 09:29:51;;;;;;;;;;;;;;;23.98;100.00;94524.13;4904896;29;20036;-88
2022/08/25 09:32:17;;;;;;;4.28;2.80;;;;;;;24.19;100.00;94525.72;4887980;29;19918;-89
2022/08/25 09:34:43;;;;;;;5.05;2.80;;;;;;;24.44;100.00;94518.19;4887747;29;20036;-87
2022/08/25 09:37:09;;;;;;;8.40;4.00;;;;;;;24.52;100.00;94524.44;4889796;29;20028;-90
2022/08/25 09:39:35;;;;;;;6.50;3.45;;;;;;;24.58;100.00;94523.06;4890148;29;20032;-90
2022/08/25 09:42:03;;;;;;;4.78;2.97;;;;;;;24.49;100.00;94528.63;4890526;29;20043;-91
2022/08/25 09:44:41;;;;;;;6.55;2.90;;;;;;;24.53;100.00;94528.69;4890716;29;20051;-89
2022/08/25 09:47:26;;;;;;;5.80;2.65;;;;;;;24.77;100.00;94532.22;4906741;29;20422;-88
2022/08/25 09:49:59;;;;;;;5.15;3.13;;;;;;;24.67;100.00;94526.28;4889975;29;20040;-88
2022/08/25 09:52:34;;;;;;;4.07;2.70;;;;;;;24.50;100.00;94524.81;4890390;29;20118;-90
2022/08/25 09:55:12;;;;;;;4.53;2.60;;;;;;;24.67;100.00;94520.16;4890673;29;20042;-91
2022/08/25 09:57:54;;;;;;;4.10;2.85;;;;;;;24.66;100.00;94519.38;4905292;29;20028;-87
2022/08/25 10:00:29;;;;;;;4.55;2.80;;;;;;;25.09;100.00;94521.28;4890854;29;20039;-88
2022/08/25 10:03:14;;;;;;;4.10;2.55;;;;;;;25.08;99.34;94506.34;4905807;29;20358;-87
2022/08/25 10:05:56;;;;;;;3.55;2.50;;;;;;;25.43;100.00;94510.75;4891093;29;20035;-88
2022/08/25 10:08:43;;;;;;;3.20;2.58;;;;;;;25.49;96.31;94513.94;4922195;29;20035;-86
2022/08/25 10:11:14;;;;;;;5.25;2.58;;;;;;;25.78;100.00;94509.00;4904938;29;20029;-87
2022/08/25 10:14:06;;;;;;;2.85;2.40;;;;;;;26.22;91.67;94511.16;4890147;29;20036;-87
2022/08/25 10:16:55;;;;;;;;;;;;;;;;;;;;;
2022/08/25 10:19:25;;;;;;;6.28;2.38;;;;;;;26.04;90.02;94504.72;4906610;29;20032;-86
2022/08/25 10:22:11;;;;;;;2.60;2.03;;;;;;;25.67;90.02;94506.16;4889764;29;20038;-86
2022/08/25 10:24:39;;;;;;;6.38;2.35;;;;;;;26.04;98.03;94499.34;4904954;29;20024;-87
2022/08/25 10:27:47;;;;;;;4.65;2.60;;;;;;;26.01;97.20;94500.09;4905535;29;20035;-88
2022/08/25 10:30:22;;;;;;;4.07;2.63;;;;;;;26.16;89.95;94495.69;4863630;29;20371;-89
2022/08/25 10:32:54;;;;;;;4.68;2.10;;;;;;;26.38;86.12;94494.81;4898185;29;20043;-87
2022/08/25 10:35:26;;;;;;;3.85;2.30;;;;;;;26.36;91.26;94494.41;4913151;29;20067;-87
2022/08/25 10:37:58;;;;;;;4.97;2.40;;;;;;;26.17;85.67;94491.88;4871498;29;20051;-88
2022/08/25 10:40:31;;;;;;;5.47;2.67;;;;;;;26.10;94.43;94485.25;4871235;29;20028;-91
2022/08/25 10:43:06;;;;;;;4.70;2.40;;;;;;;26.48;92.12;94480.00;4886359;29;20037;-88
2022/08/25 10:45:59;;;;;;;4.43;2.65;;;;;;;26.32;85.49;94474.03;4886346;29;20044;-89
2022/08/25 10:48:46;;;;;;;3.30;2.47;;;;;;;26.26;89.87;94470.91;4872137;29;20378;-89
2022/08/25 10:51:53;;;;;;;4.05;2.50;;;;;;;25.77;86.79;94467.97;4902938;29;20111;-88
2022/08/25 10:54:56;;;;;;;5.93;2.65;;;;;;;26.45;85.71;94467.28;4889965;29;20079;-88
2022/08/25 10:57:46;;;;;;;4.88;2.60;;;;;;;26.57;80.87;94468.94;4904723;29;20039;-91
2022/08/25 11:00:12;;;;;;;3.97;2.50;;;;;;;26.43;83.69;94463.44;4904617;29;20028;-87
2022/08/25 11:02:44;;;;;;;3.88;2.50;;;;;;;26.27;86.40;94471.69;4921432;29;20032;-89
2022/08/25 11:05:23;;;;;;;2.92;2.42;;;;;;;26.72;82.25;94458.34;4904771;29;20126;-87
2022/08/25 11:07:59;;;;;;;4.72;2.50;;;;;;;26.50;80.24;94450.06;4920744;29;20071;-87
2022/08/25 11:10:40;;;;;;;4.70;2.45;;;;;;;26.38;87.24;94448.41;4904660;29;20028;-89
2022/08/25 11:13:12;;;;;;;3.55;2.60;;;;;;;26.74;79.83;94453.38;4905238;29;20036;-88
2022/08/25 11:15:52;;;;;;;3.87;2.40;;;;;;;26.60;80.06;94446.72;4904517;29;20028;-90
2022/08/25 11:18:19;;;;;;;3.10;2.42;;;;;;;25.73;81.49;94450.25;4904309;29;20370;-87
2022/08/25 11:20:51;;;;;;;3.60;2.08;;;;;;;26.17;80.84;94449.66;4904994;29;20024;-86
2022/08/25 11:23:22;;;;;;;3.50;2.38;;;;;;;26.28;78.81;94441.78;4904291;29;20336;-88
2022/08/25 11:26:00;;;;;;;4.25;2.45;;;;;;;25.66;82.40;94440.22;4904710;29;20106;-89
2022/08/25 11:29:41;;;;;;;;;;;;;;;;;;;;;
2022/08/25 11:32:24;;;;;;;4.88;2.67;;;;;;;26.65;81.01;94434.88;4880803;29;20032;-87
2022/08/25 11:35:09;;;;;;;;;;;;;;;;;;;;;
2022/08/25 11:38:01;;;;;;;3.55;2.20;;;;;;;27.17;77.39;94432.25;4904837;29;20375;-85
2022/08/25 11:40:59;;;;;;;;;;;;;;;;;;;;;
2022/08/25 11:43:37;;;;;;;3.17;2.10;;;;;;;27.08;74.35;94434.50;4920738;29;20456;-87
2022/08/25 11:46:24;;;;;;;;;;;;;;;;;;;;;
2022/08/25 11:49:07;;;;;;;2.60;1.90;;;;;;;27.32;80.32;94427.00;4920046;29;20024;-85
2022/08/25 11:52:03;;;;;;;4.05;2.70;;;;;;;26.77;78.69;94420.38;4920525;29;20027;-86
2022/08/25 11:54:38;;;;;;;5.05;2.10;;;;;;;27.11;76.83;94420.28;4877237;29;20361;-87
2022/08/25 11:57:11;;;;;;;2.95;2.08;;;;;;;27.33;77.33;94431.22;4885220;29;20433;-88
2022/08/25 11:59:54;;;;;;;4.47;2.72;;;;;;;27.18;74.83;94424.97;4885659;29;20060;-86
2022/08/25 12:02:54;;;;;;;5.13;2.45;;;;;;;27.35;73.85;94418.16;4918392;29;20032;-87
2022/08/25 12:05:22;;;;;;;3.55;2.20;;;;;;;27.05;76.85;94416.41;4889633;29;20032;-86
2022/08/25 12:11:07;;;;;;;9.30;2.47;;;;;;;27.41;71.31;94419.38;4901302;29;20081;-87
2022/08/25 12:13:48;;;;;;;4.22;2.03;;;;;;;27.34;73.19;94413.94;4870313;29;20029;-87
2022/08/25 12:16:48;;;;;;;5.05;2.15;;;;;;;27.33;74.81;94418.56;4885293;29;20056;-85
2022/08/25 12:19:30;;;;;;;3.75;2.40;;;;;;;27.67;70.89;94420.31;4870893;29;20434;-87
2022/08/25 12:22:26;;;;;;;5.75;2.47;;;;;;;27.64;67.62;94419.16;4885234;29;20449;-88
2022/08/25 12:25:37;;;;;;;3.38;2.38;;;;;;;27.83;72.10;94416.53;4885085;29;20068;-87
2022/08/25 12:28:22;;;;;;;3.63;2.22;;;;;;;28.49;68.59;94411.03;4863071;29;20032;-90
2022/08/25 12:31:07;;;;;;;;;;;;;;;;;;;;;
2022/08/25 12:33:58;;;;;;;6.53;2.28;;;;;;;28.28;67.16;94417.13;4906075;29;20047;-88
2022/08/25 12:36:32;;;;;;;4.47;2.35;;;;;;;28.30;62.19;94414.84;4925124;29;20132;-86
2022/08/25 12:39:36;;;;;;;2.97;2.00;;;;;;;28.41;66.82;94403.31;4907507;29;20020;-87
2022/08/25 12:42:26;;;;;;;2.85;2.17;;;;;;;28.50;67.42;94406.41;4900335;29;20047;-87
2022/08/25 12:45:19;;;;;;;6.65;2.53;;;;;;;29.29;64.86;94405.69;4924218;29;20512;-89
2022/08/25 12:48:34;;;;;;;;;;;;;;;;;;;;;
2022/08/25 12:51:02;;;;;;;3.50;1.92;;;;;;;29.12;61.29;94403.78;4924075;29;20038;-87
2022/08/25 12:53:59;;;;;;;4.10;2.00;;;;;;;28.59;61.47;94401.41;4907186;29;20031;-88
2022/08/25 12:56:37;;;;;;;5.65;2.63;;;;;;;27.41;67.29;94408.63;4907588;29;20326;-91
2022/08/25 12:59:20;;;;;;;5.28;2.35;;;;;;;27.12;70.66;94402.25;4906256;29;20036;-89
2022/08/25 13:02:37;;;;;;;6.53;2.53;;;;;;;27.37;70.47;94407.81;4923985;29;20083;-87
2022/08/25 13:05:21;;;;;;;6.65;2.65;;;;;;;28.18;63.94;94404.41;4923684;29;20447;-87
2022/08/25 13:08:05;;;;;;;4.38;2.30;;;;;;;29.33;60.44;94398.34;4923249;29;20140;-86
2022/08/25 13:11:04;;;;;;;3.55;2.20;;;;;;;29.24;64.69;94391.81;4938583;29;20078;-86
2022/08/25 13:14:00;;;;;;;4.90;2.25;;;;;;;29.45;60.81;94389.13;4937296;29;20039;-87
2022/08/25 13:16:32;;;;;;;4.45;2.13;;;;;;;29.67;58.99;94399.09;4892031;29;20366;-88
2022/08/25 13:19:06;;;;;;;2.63;2.05;;;;;;;28.89;59.32;94399.53;4891309;29;20036;-89
2022/08/25 13:21:43;;;;;;;3.80;2.13;;;;;;;28.68;60.05;94386.78;4905986;29;20429;-85
2022/08/25 13:24:38;;;;;;;4.03;2.50;;;;;;;28.61;63.09;94387.53;4909838;29;20047;-90
2022/08/25 13:27:07;;;;;;;3.50;2.53;;;;;;;27.84;63.78;94391.19;4891611;29;20028;-90
2022/08/25 13:29:53;;;;;;;5.20;2.50;;;;;;;27.04;72.06;94385.31;4921382;29;20032;-89
2022/08/25 13:32:33;;;;;;;6.97;2.50;;;;;;;28.17;70.35;94386.69;4872978;29;20123;-89
2022/08/25 13:35:27;;;;;;;3.10;2.28;;;;;;;28.51;70.36;94386.38;4887046;29;20119;-87
2022/08/25 13:37:55;;;;;;;4.38;2.65;;;;;;;29.25;65.07;94385.25;4887117;29;20426;-86
2022/08/25 13:40:32;;;;;;;3.15;2.63;;;;;;;28.90;60.97;94382.97;4904340;29;20040;-86
2022/08/25 13:43:05;;;;;;;5.07;2.63;;;;;;;28.30;64.21;94385.19;4903050;29;20072;-87
2022/08/25 13:45:40;;;;;;;5.45;2.42;;;;;;;28.51;63.24;94378.28;4870979;29;20357;-86
2022/08/25 13:48:09;;;;;;;6.22;2.60;;;;;;;28.87;60.24;94377.59;4871070;29;20039;-87
2022/08/25 13:50:39;;;;;;;4.72;2.20;;;;;;;29.42;59.83;94381.81;4902960;29;20556;-90
2022/08/25 13:53:24;;;;;;;3.55;2.13;;;;;;;29.75;57.54;94376.28;4872242;29;20358;-89
2022/08/25 13:55:59;;;;;;;4.53;2.30;;;;;;;29.84;58.22;94379.34;4888305;29;20206;-91
2022/08/25 13:58:31;;;;;;;3.22;2.25;;;;;;;29.82;57.32;94378.19;4887105;29;20439;-94
2022/08/25 14:01:30;;;;;;;6.57;2.88;;;;;;;30.36;57.06;94374.50;4903123;29;20333;-90
2022/08/25 14:04:24;;;;;;;5.75;2.85;;;;;;;30.94;55.29;94368.72;4872035;29;20072;-86
2022/08/25 14:07:17;;;;;;;7.13;2.60;;;;;;;30.76;54.32;94369.63;4903121;29;20046;-88
2022/08/25 14:09:53;;;;;;;3.47;2.28;;;;;;;30.18;55.53;94378.06;4886197;29;20069;-87
2022/08/25 14:13:04;;;;;;;5.28;2.58;;;;;;;29.27;58.86;94377.56;4904076;29;20076;-89